Time;durP1;ratioP1;P1;durP2;ratioP2;P2;SDS_P1;SDS_P2;PMS_P1;PMS_P2;Temp;Humidity;BMP_temperature;BMP_pressure;BME280_temperature;BME280_humidity;BME280_pressure;Samples;Min_cycle;Max_cycle;Signal;HPM_P1;HPM_P2
2023/12/29 00:01:59;;;;;;;2.50;1.90;;;8.10;99.90;;;7.65;100.00;97292.22;4938041;28;20031;-37
2023/12/29 00:04:25;;;;;;;3.45;1.80;;;8.20;99.90;;;7.75;100.00;97287.56;4929874;28;20058;-37
2023/12/29 00:06:51;;;;;;;2.83;1.67;;;8.30;99.90;;;7.75;100.00;97282.31;4937632;28;20027;-37
2023/12/29 00:09:19;;;;;;;3.65;1.90;;;8.30;99.90;;;7.74;100.00;97283.25;4939048;28;20086;-38
2023/12/29 00:11:49;;;;;;;2.60;1.77;;;8.20;99.90;;;7.70;100.00;97277.22;4940997;28;20042;-38
2023/12/29 00:14:15;;;;;;;3.47;1.80;;;8.20;99.90;;;7.73;100.00;97281.50;4935178;28;20106;-38
2023/12/29 00:16:41;;;;;;;2.08;1.60;;;8.20;99.90;;;7.73;100.00;97284.13;4942593;28;20034;-38
2023/12/29 00:19:07;;;;;;;2.50;1.90;;;8.30;99.90;;;7.77;100.00;97289.25;4938996;28;20039;-37
2023/12/29 00:21:33;;;;;;;4.25;1.77;;;8.30;99.90;;;7.81;100.00;97285.66;4930461;28;20023;-39
2023/12/29 00:23:58;;;;;;;2.58;1.67;;;8.30;99.90;;;7.86;100.00;97289.91;4944347;28;20499;-38
2023/12/29 00:26:24;;;;;;;2.13;1.88;;;8.40;99.90;;;7.89;100.00;97284.56;4943805;28;20074;-38
2023/12/29 00:28:51;;;;;;;3.08;1.73;;;8.40;99.90;;;7.81;100.00;97276.91;4956063;28;20034;-38
2023/12/29 00:31:17;;;;;;;4.43;2.10;;;8.30;99.90;;;7.74;100.00;97286.72;4935285;28;20105;-38
2023/12/29 00:33:43;;;;;;;3.03;1.70;;;8.30;99.90;;;7.69;100.00;97278.09;4940070;28;20134;-39
2023/12/29 00:36:16;;;;;;;4.05;2.28;;;8.20;99.90;;;7.62;100.00;97277.41;4936470;28;20023;-37
2023/12/29 00:38:42;;;;;;;3.85;2.03;;;8.20;99.90;;;7.60;100.00;97273.97;4944796;28;20070;-38
2023/12/29 00:41:07;;;;;;;2.83;1.88;;;8.20;99.90;;;7.66;100.00;97278.16;4940391;28;20308;-37
2023/12/29 00:43:33;;;;;;;2.20;1.60;;;8.20;99.90;;;7.67;100.00;97269.41;4944452;28;20026;-38
2023/12/29 00:46:02;;;;;;;3.38;1.73;;;8.20;99.90;;;7.63;100.00;97268.63;4937152;28;20400;-37
2023/12/29 00:48:27;;;;;;;1.88;1.67;;;8.30;99.90;;;7.67;100.00;97271.19;4942421;28;20035;-38
2023/12/29 00:50:53;;;;;;;3.53;1.67;;;8.20;99.90;;;7.68;100.00;97273.78;4937196;28;20094;-38
2023/12/29 00:53:19;;;;;;;4.00;1.88;;;8.20;99.90;;;7.71;100.00;97276.28;4941677;28;20547;-38
2023/12/29 00:55:44;;;;;;;4.32;1.70;;;8.30;99.90;;;7.74;100.00;97278.84;4941786;28;20031;-38
2023/12/29 00:58:10;;;;;;;2.47;1.77;;;8.30;99.90;;;7.82;100.00;97284.75;4943384;28;20578;-38
2023/12/29 01:00:36;;;;;;;3.63;1.92;;;8.30;99.90;;;7.83;100.00;97286.47;4941823;28;20070;-38
2023/12/29 01:03:01;;;;;;;1.75;1.63;;;8.40;99.90;;;7.90;100.00;97286.31;4940402;28;20039;-37
2023/12/29 01:05:27;;;;;;;2.42;1.77;;;8.40;99.90;;;7.98;100.00;97290.41;4936859;28;21660;-37
2023/12/29 01:07:54;;;;;;;2.38;1.77;;;8.50;99.90;;;8.02;100.00;97291.19;4938010;28;20039;-38
2023/12/29 01:10:19;;;;;;;2.88;1.85;;;8.60;99.90;;;8.10;100.00;97299.72;4941580;28;20046;-37
2023/12/29 01:12:45;;;;;;;3.55;2.00;;;8.60;99.90;;;8.13;100.00;97302.25;4941261;28;20035;-37
2023/12/29 01:15:11;;;;;;;2.33;1.80;;;8.70;99.90;;;8.17;100.00;97303.88;4938586;28;20122;-37
2023/12/29 01:17:37;;;;;;;2.40;1.80;;;8.70;99.90;;;8.20;100.00;97292.41;4939215;28;20476;-37
2023/12/29 01:20:04;;;;;;;4.78;2.08;;;8.70;99.90;;;8.24;100.00;97291.44;4941001;28;20028;-37
2023/12/29 01:22:30;;;;;;;4.43;1.70;;;8.70;99.90;;;8.28;100.00;97298.31;4938615;28;20031;-37
2023/12/29 01:24:55;;;;;;;4.03;1.75;;;8.80;99.90;;;8.27;100.00;97285.22;4938092;28;20419;-37
2023/12/29 01:27:21;;;;;;;2.70;1.90;;;8.80;99.90;;;8.28;100.00;97276.44;4933636;28;20044;-37
2023/12/29 01:29:47;;;;;;;3.25;1.83;;;8.80;99.90;;;8.35;100.00;97291.13;4939820;28;20027;-37
2023/12/29 01:32:12;;;;;;;2.75;1.80;;;8.80;99.90;;;8.28;100.00;97281.69;4938803;28;20035;-37
2023/12/29 01:34:38;;;;;;;3.75;2.00;;;8.80;99.90;;;8.26;100.00;97294.03;4939037;28;20035;-38
2023/12/29 01:37:04;;;;;;;2.67;1.70;;;8.80;99.90;;;8.21;100.00;97297.63;4936717;28;20552;-37
2023/12/29 01:39:30;;;;;;;4.90;2.33;;;8.80;99.90;;;8.25;100.00;97297.53;4938442;28;20082;-37
2023/12/29 01:41:56;;;;;;;3.42;2.00;;;8.80;99.90;;;8.25;100.00;97285.25;4934938;28;20019;-37
2023/12/29 01:44:23;;;;;;;3.70;2.30;;;8.80;99.90;;;8.34;100.00;97299.91;4945872;28;20039;-37
2023/12/29 01:46:55;;;;;;;4.03;2.25;;;8.90;99.90;;;8.39;100.00;97292.75;4940413;28;20125;-37
2023/12/29 01:49:21;;;;;;;;;;;8.90;99.90;;;8.33;100.00;97269.28;4944678;28;20075;-37
2023/12/29 01:51:56;;;;;;;2.70;1.90;;;9.00;99.90;;;8.46;100.00;97277.69;4941005;28;20326;-37
2023/12/29 01:54:26;;;;;;;4.57;2.00;;;9.00;99.90;;;8.49;100.00;97280.22;4938318;28;20086;-37
2023/12/29 01:56:57;;;;;;;2.90;1.85;;;9.00;99.90;;;8.53;100.00;97271.34;4938536;28;20151;-37
2023/12/29 01:59:25;;;;;;;2.63;1.95;;;9.00;99.90;;;8.52;100.00;97273.09;4943918;28;20047;-37
2023/12/29 02:01:51;;;;;;;3.58;2.40;;;9.10;99.90;;;8.53;100.00;97277.47;4941608;28;20515;-37
2023/12/29 02:04:18;;;;;;;4.13;2.10;;;9.10;99.90;;;8.47;100.00;97268.88;4943153;28;20117;-37
2023/12/29 02:06:43;;;;;;;4.32;2.10;;;9.00;99.90;;;8.43;100.00;97257.59;4939495;28;20031;-37
2023/12/29 02:09:09;;;;;;;3.03;2.20;;;9.00;99.90;;;8.43;100.00;97259.38;4936167;28;20491;-38
2023/12/29 02:11:35;;;;;;;3.38;2.08;;;9.00;99.90;;;8.44;100.00;97269.84;4939503;28;20038;-38
2023/12/29 02:14:02;;;;;;;6.55;2.50;;;9.00;99.90;;;8.45;100.00;97247.06;4941077;28;20126;-38
2023/12/29 02:16:39;;;;;;;3.45;2.30;;;9.00;99.90;;;8.52;100.00;97265.19;4942052;28;20400;-38
2023/12/29 02:19:28;;;;;;;3.20;1.88;;;9.00;99.90;;;8.54;100.00;97260.78;4944925;28;20373;-37
2023/12/29 02:21:54;;;;;;;3.88;2.40;;;9.10;99.90;;;8.56;100.00;97261.59;4944253;28;20503;-37
2023/12/29 02:24:20;;;;;;;3.72;2.10;;;9.10;99.90;;;8.59;100.00;97264.09;4935848;28;20050;-37
2023/12/29 02:26:51;;;;;;;2.92;2.17;;;9.10;99.90;;;8.64;100.00;97247.34;4943242;28;20046;-37
2023/12/29 02:29:21;;;;;;;2.80;1.90;;;9.10;99.90;;;8.63;100.00;97250.88;4940646;28;20039;-38
2023/12/29 02:31:51;;;;;;;5.03;2.15;;;9.10;99.90;;;8.63;100.00;97250.88;4944939;28;20035;-38
2023/12/29 02:34:18;;;;;;;3.03;2.20;;;9.10;99.90;;;8.63;100.00;97246.47;4957386;28;20043;-38
2023/12/29 02:36:44;;;;;;;3.30;2.28;;;9.20;99.90;;;8.63;100.00;97235.09;4944668;28;20506;-38
2023/12/29 02:39:10;;;;;;;4.35;2.40;;;9.20;99.90;;;8.71;100.00;97247.09;4943164;28;20032;-37
2023/12/29 02:41:39;;;;;;;4.18;2.30;;;9.20;99.90;;;8.71;100.00;97246.25;4945759;28;20101;-38
2023/12/29 02:44:04;;;;;;;3.25;2.00;;;9.20;99.90;;;8.70;100.00;97242.72;4939865;28;21058;-38
2023/12/29 02:46:30;;;;;;;2.92;2.05;;;9.20;99.90;;;8.67;100.00;97227.09;4940596;28;20054;-39
2023/12/29 02:48:56;;;;;;;3.25;2.13;;;9.20;99.90;;;8.66;100.00;97238.50;4943865;28;20416;-38
2023/12/29 02:51:22;;;;;;;4.28;2.30;;;9.20;99.90;;;8.63;100.00;97238.59;4939265;28;20046;-36
2023/12/29 02:53:48;;;;;;;4.03;2.30;;;9.20;99.90;;;8.65;100.00;97234.16;4942826;28;20039;-39
2023/12/29 02:56:14;;;;;;;4.03;2.30;;;9.20;99.90;;;8.63;100.00;97240.34;4942693;28;20121;-37
2023/12/29 02:58:40;;;;;;;4.43;2.42;;;9.20;99.90;;;8.68;100.00;97227.94;4940987;28;20034;-38
2023/12/29 03:01:06;;;;;;;4.97;2.28;;;9.20;99.90;;;8.61;100.00;97227.25;4955254;28;20035;-38
2023/12/29 03:03:32;;;;;;;3.40;2.00;;;9.20;99.90;;;8.58;100.00;97224.75;4933390;28;20767;-38
2023/12/29 03:05:57;;;;;;;3.67;2.40;;;9.10;99.90;;;8.54;100.00;97224.00;4944514;28;20071;-38
2023/12/29 03:08:23;;;;;;;4.60;2.33;;;9.10;99.90;;;8.45;100.00;97205.84;4943613;28;20042;-38
2023/12/29 03:10:49;;;;;;;5.13;2.67;;;9.10;99.90;;;8.51;100.00;97220.59;4935984;28;20039;-37
2023/12/29 03:13:14;;;;;;;3.60;2.28;;;9.10;99.90;;;8.49;100.00;97223.28;4936072;28;20046;-38
2023/12/29 03:15:40;;;;;;;3.63;2.45;;;9.00;99.90;;;8.43;100.00;97219.97;4941478;28;20499;-37
2023/12/29 03:18:06;;;;;;;5.38;2.60;;;9.00;99.90;;;8.38;100.00;97214.81;4942474;28;20289;-36
2023/12/29 03:20:31;;;;;;;4.10;2.40;;;8.90;99.90;;;8.36;100.00;97219.25;4941998;28;20496;-36
2023/12/29 03:22:57;;;;;;;4.15;2.28;;;8.90;99.90;;;8.29;100.00;97217.72;4943051;28;20027;-36
2023/12/29 03:25:23;;;;;;;4.00;2.55;;;8.80;99.90;;;8.28;100.00;97216.03;4938804;28;20031;-36
2023/12/29 03:27:49;;;;;;;5.13;2.42;;;8.80;99.90;;;8.26;100.00;97208.19;4938189;28;20468;-37
2023/12/29 03:30:14;;;;;;;3.15;2.20;;;8.80;99.90;;;8.15;100.00;97200.63;4933260;28;20047;-38
2023/12/29 03:32:40;;;;;;;3.40;2.35;;;8.70;99.90;;;7.99;100.00;97192.34;4943704;28;20057;-37
2023/12/29 03:35:06;;;;;;;6.25;2.55;;;8.60;99.90;;;7.96;100.00;97197.69;4942015;28;20050;-37
2023/12/29 03:38:25;;;;;;;4.30;2.45;;;8.50;99.90;;;7.80;100.00;97204.28;4945060;28;20027;-37
2023/12/29 03:40:51;;;;;;;4.07;2.22;;;8.40;99.90;;;7.64;100.00;97201.25;4921833;28;20403;-37
2023/12/29 03:43:17;;;;;;;4.22;2.30;;;8.20;99.90;;;7.52;100.00;97205.09;4934640;28;20074;-37
2023/12/29 03:45:42;;;;;;;2.83;2.10;;;8.10;99.90;;;7.49;100.00;97199.06;4942328;28;20035;-37
2023/12/29 03:48:08;;;;;;;3.33;2.40;;;8.10;99.90;;;7.48;100.00;97197.34;4944750;28;20039;-37
2023/12/29 03:50:34;;;;;;;2.78;2.20;;;8.00;99.90;;;7.51;100.00;97205.97;4937938;28;20513;-37
2023/12/29 03:53:00;;;;;;;5.45;1.88;;;8.00;99.90;;;7.51;100.00;97200.72;4941828;28;20041;-38
2023/12/29 03:55:26;;;;;;;2.50;1.83;;;8.10;99.90;;;7.56;100.00;97200.63;4938132;28;20032;-37
2023/12/29 03:57:51;;;;;;;4.15;2.20;;;8.10;99.90;;;7.60;100.00;97204.88;4936092;28;20085;-37
2023/12/29 04:00:17;;;;;;;4.07;2.03;;;8.20;99.90;;;7.60;100.00;97189.13;4938998;28;20028;-37
2023/12/29 04:02:43;;;;;;;2.95;2.08;;;8.20;99.90;;;7.61;100.00;97185.59;4940006;28;20023;-37
2023/12/29 04:05:10;;;;;;;3.15;2.13;;;8.20;99.90;;;7.65;100.00;97188.09;4940912;28;20035;-38
2023/12/29 04:07:36;;;;;;;3.15;2.30;;;8.20;99.90;;;7.77;100.00;97209.63;4934978;28;20511;-38
2023/12/29 04:10:03;;;;;;;3.80;2.20;;;8.30;99.90;;;7.74;100.00;97179.09;4935722;28;20093;-36
2023/12/29 04:12:29;;;;;;;3.33;1.92;;;8.30;99.90;;;7.88;100.00;97190.94;4930087;28;20072;-38
2023/12/29 04:14:54;;;;;;;3.13;2.00;;;8.40;99.90;;;7.92;100.00;97188.19;4935417;28;20862;-35
2023/12/29 04:17:20;;;;;;;5.10;2.10;;;8.50;99.90;;;7.95;100.00;97182.84;4934710;28;20034;-37
2023/12/29 04:19:46;;;;;;;2.83;1.75;;;8.50;99.90;;;7.96;100.00;97181.94;4941440;28;20035;-37
2023/12/29 04:22:11;;;;;;;2.85;2.03;;;8.50;99.90;;;7.80;100.00;97154.41;4935101;28;20360;-37
2023/12/29 04:24:38;;;;;;;2.33;1.98;;;8.50;99.90;;;7.90;100.00;97182.13;4934389;28;20035;-38
2023/12/29 04:27:04;;;;;;;5.28;2.22;;;8.40;99.90;;;7.80;100.00;97181.50;4942642;28;20609;-38
2023/12/29 04:29:30;;;;;;;2.65;2.08;;;8.40;99.90;;;7.78;100.00;97188.59;4938014;28;20399;-38
2023/12/29 04:31:55;;;;;;;2.40;2.00;;;8.40;99.90;;;7.78;100.00;97195.59;4939017;28;20031;-37
2023/12/29 04:34:21;;;;;;;3.75;2.40;;;8.30;99.90;;;7.76;100.00;97198.28;4935853;28;20062;-37
2023/12/29 04:36:47;;;;;;;3.40;2.33;;;8.30;99.90;;;7.74;100.00;97192.22;4935672;28;20110;-39
2023/12/29 04:39:13;;;;;;;4.60;2.28;;;8.30;99.90;;;7.75;100.00;97177.31;4934276;28;20035;-38
2023/12/29 04:41:38;;;;;;;4.88;2.20;;;8.30;99.90;;;7.60;100.00;97173.38;4939518;28;20426;-38
2023/12/29 04:44:04;;;;;;;3.50;2.03;;;8.20;99.90;;;7.62;100.00;97172.41;4935981;28;20476;-38
2023/12/29 04:46:30;;;;;;;3.20;2.10;;;8.20;99.90;;;7.57;100.00;97178.69;4933773;28;20031;-39
2023/12/29 04:48:56;;;;;;;3.50;2.05;;;8.10;99.90;;;7.59;100.00;97190.00;4935607;28;20039;-39
2023/12/29 04:51:21;;;;;;;3.22;2.30;;;8.20;99.90;;;7.68;100.00;97202.91;4934206;28;20540;-37
2023/12/29 04:53:47;;;;;;;3.47;2.05;;;8.20;99.90;;;7.69;100.00;97201.13;4938963;28;20057;-38
2023/12/29 04:56:13;;;;;;;4.20;2.10;;;8.30;99.90;;;7.66;100.00;97194.19;4940710;28;20035;-38
2023/12/29 04:58:38;;;;;;;3.63;2.40;;;8.30;99.90;;;7.75;100.00;97212.31;4940873;28;20471;-39
2023/12/29 05:01:04;;;;;;;3.35;2.22;;;8.30;99.90;;;7.77;100.00;97197.38;4942326;28;20431;-37
2023/12/29 05:03:30;;;;;;;3.90;2.15;;;8.30;99.90;;;7.81;100.00;97198.16;4939991;28;20035;-37
2023/12/29 05:05:55;;;;;;;4.13;2.00;;;8.40;99.90;;;7.79;100.00;97194.72;4939701;28;20031;-38
2023/12/29 05:08:21;;;;;;;4.50;2.20;;;8.40;99.90;;;7.79;100.00;97195.56;4936030;28;20117;-38
2023/12/29 05:10:47;;;;;;;3.10;1.80;;;8.40;99.90;;;7.78;100.00;97198.22;4941340;28;20066;-37
2023/12/29 05:13:13;;;;;;;3.35;2.30;;;8.40;99.90;;;7.73;100.00;97187.00;4938984;28;20042;-38
2023/12/29 05:15:39;;;;;;;3.35;2.05;;;8.40;99.90;;;7.85;100.00;97207.66;4934103;28;20031;-38
2023/12/29 05:18:05;;;;;;;4.00;2.08;;;8.40;99.90;;;7.88;100.00;97209.31;4939844;28;20333;-38
2023/12/29 05:20:31;;;;;;;2.80;2.05;;;8.40;99.90;;;7.94;100.00;97215.25;4958810;28;20066;-37
2023/12/29 05:22:56;;;;;;;3.88;2.20;;;8.50;99.90;;;7.95;100.00;97206.47;4945676;28;20045;-37
2023/12/29 05:25:24;;;;;;;2.60;2.05;;;8.50;99.90;;;7.92;100.00;97198.69;4943523;28;20219;-39
2023/12/29 05:27:50;;;;;;;4.90;2.03;;;8.50;99.90;;;7.97;100.00;97203.81;4940722;28;20027;-38
2023/12/29 05:30:16;;;;;;;2.80;2.13;;;8.50;99.90;;;7.94;100.00;97201.28;4941828;28;20492;-37
2023/12/29 05:32:41;;;;;;;2.13;1.73;;;8.50;99.90;;;7.90;100.00;97194.41;4945623;28;20038;-37
2023/12/29 05:35:07;;;;;;;3.85;2.30;;;8.40;99.90;;;7.84;100.00;97201.56;4945767;28;20066;-37
2023/12/29 05:37:33;;;;;;;3.97;2.13;;;8.50;99.90;;;7.79;100.00;97189.47;4939366;28;20577;-37
2023/12/29 05:39:59;;;;;;;2.78;1.80;;;8.30;99.90;;;7.74;100.00;97197.47;4939220;28;20169;-37
2023/12/29 05:42:24;;;;;;;3.05;1.95;;;8.30;99.90;;;7.75;100.00;97199.19;4945377;28;20035;-37
2023/12/29 05:44:50;;;;;;;3.15;2.00;;;8.30;99.90;;;7.73;100.00;97190.47;4948791;28;20218;-38
2023/12/29 05:47:17;;;;;;;6.57;2.47;;;8.30;99.90;;;7.76;100.00;97210.53;4939227;28;20471;-39
2023/12/29 05:49:43;;;;;;;4.22;2.55;;;8.30;99.90;;;7.73;100.00;97202.75;4944114;28;20039;-39
2023/12/29 05:52:09;;;;;;;3.67;1.88;;;8.30;99.90;;;7.71;100.00;97202.78;4945558;28;20034;-39
2023/12/29 05:54:35;;;;;;;3.58;2.03;;;8.30;99.90;;;7.73;100.00;97194.88;4943688;28;20039;-38
2023/12/29 05:57:01;;;;;;;2.47;2.00;;;8.30;99.90;;;7.68;100.00;97197.66;4943429;28;20519;-37
2023/12/29 05:59:27;;;;;;;3.20;1.98;;;8.30;99.90;;;7.60;100.00;97192.59;4943269;28;20038;-38
2023/12/29 06:01:53;;;;;;;2.60;2.10;;;8.20;99.90;;;7.61;100.00;97206.59;4949475;28;20357;-39
2023/12/29 06:04:18;;;;;;;3.75;2.15;;;8.20;99.90;;;7.58;100.00;97211.94;4943189;28;20146;-38
2023/12/29 06:06:45;;;;;;;3.30;2.20;;;8.10;99.90;;;7.59;100.00;97209.25;4946198;28;20031;-37
2023/12/29 06:09:11;;;;;;;3.47;2.10;;;8.10;99.90;;;7.58;100.00;97207.53;4943545;28;20031;-39
2023/12/29 06:11:37;;;;;;;2.92;2.40;;;8.10;99.90;;;7.55;100.00;97201.50;4943815;28;20045;-37
2023/12/29 06:14:03;;;;;;;5.90;2.40;;;8.10;99.90;;;7.56;100.00;97211.13;4942600;28;20097;-38
2023/12/29 06:16:30;;;;;;;4.88;2.30;;;8.10;99.90;;;7.55;100.00;97206.75;4944469;28;20098;-38
2023/12/29 06:18:56;;;;;;;2.78;2.22;;;8.10;99.90;;;7.54;100.00;97210.31;4942266;28;20408;-36
2023/12/29 06:21:21;;;;;;;4.35;2.30;;;8.10;99.90;;;7.51;100.00;97205.13;4945098;28;20117;-38
2023/12/29 06:23:48;;;;;;;3.40;2.25;;;8.10;99.90;;;7.41;100.00;97194.91;4944548;28;20451;-38
2023/12/29 06:26:18;;;;;;;3.35;2.10;;;8.00;99.90;;;7.28;100.00;97198.75;4946315;28;20034;-37
2023/12/29 06:28:45;;;;;;;3.45;2.10;;;7.90;99.90;;;7.18;100.00;97206.00;4945763;28;20408;-37
2023/12/29 06:31:11;;;;;;;3.40;1.92;;;7.80;99.90;;;7.06;100.00;97207.16;4948525;28;20043;-37
2023/12/29 06:33:41;;;;;;;3.90;2.15;;;7.70;99.90;;;7.03;100.00;97209.91;4945602;28;20549;-39
2023/12/29 06:36:08;;;;;;;3.33;1.80;;;7.60;99.90;;;6.98;100.00;97210.88;4943958;28;20027;-37
2023/12/29 06:38:33;;;;;;;3.60;2.10;;;7.50;99.90;;;7.03;100.00;97203.78;4940836;28;20146;-37
2023/12/29 06:41:02;;;;;;;2.80;1.77;;;7.50;99.90;;;6.99;100.00;97194.28;4941567;28;20402;-38
2023/12/29 06:43:28;;;;;;;3.33;1.92;;;7.50;99.90;;;7.03;100.00;97191.53;4944095;28;20042;-37
2023/12/29 06:45:53;;;;;;;4.53;1.88;;;7.60;99.90;;;7.03;100.00;97186.31;4943638;28;20034;-37
2023/12/29 06:48:19;;;;;;;2.40;2.00;;;7.60;99.90;;;6.99;100.00;97183.78;4942488;28;20034;-37
2023/12/29 06:50:45;;;;;;;4.85;2.13;;;7.50;99.90;;;6.95;100.00;97184.78;4942678;28;20038;-37
2023/12/29 06:53:11;;;;;;;3.60;2.10;;;7.50;99.90;;;6.97;100.00;97181.19;4944383;28;20043;-38
2023/12/29 06:55:37;;;;;;;4.22;2.00;;;7.50;99.90;;;6.95;100.00;97190.88;4942043;28;20677;-37
2023/12/29 06:58:04;;;;;;;3.35;1.95;;;7.50;99.90;;;7.07;100.00;97184.47;4943132;28;20027;-37
2023/12/29 07:00:30;;;;;;;5.53;2.40;;;7.60;99.90;;;7.13;100.00;97186.06;4942121;28;20054;-37
2023/12/29 07:02:55;;;;;;;3.80;2.10;;;7.70;99.90;;;7.18;100.00;97192.91;4945980;28;20472;-37
2023/12/29 07:05:21;;;;;;;3.47;2.30;;;7.80;99.90;;;7.25;100.00;97201.47;4943287;28;20054;-37
2023/12/29 07:07:47;;;;;;;3.05;2.35;;;7.80;99.90;;;7.37;100.00;97193.22;4942118;28;20035;-37
2023/12/29 07:10:13;;;;;;;7.15;2.17;;;7.90;99.90;;;7.43;100.00;97195.72;4938795;28;20423;-38
2023/12/29 07:12:42;;;;;;;3.13;2.00;;;8.00;99.90;;;7.51;100.00;97192.00;4936822;28;20035;-36
2023/12/29 07:15:08;;;;;;;3.92;2.10;;;8.10;99.90;;;7.56;100.00;97196.22;4944788;28;20314;-36
2023/12/29 07:17:34;;;;;;;3.47;2.03;;;8.20;99.90;;;7.62;100.00;97193.41;4942044;28;20043;-36
2023/12/29 07:20:00;;;;;;;3.35;2.10;;;8.20;99.90;;;7.54;100.00;97178.81;4944396;28;20030;-36
2023/12/29 07:22:26;;;;;;;4.10;2.10;;;8.20;99.90;;;7.65;100.00;97190.72;4944143;28;20381;-37
2023/12/29 07:24:51;;;;;;;2.75;1.77;;;8.20;99.90;;;7.65;100.00;97192.47;4945046;28;20085;-37
2023/12/29 07:27:17;;;;;;;3.20;1.90;;;8.20;99.90;;;7.59;100.00;97177.78;4944890;28;20049;-36
2023/12/29 07:29:43;;;;;;;3.30;2.08;;;8.20;99.90;;;7.49;100.00;97172.81;4940035;28;20035;-37
2023/12/29 07:32:08;;;;;;;2.90;1.75;;;8.10;99.90;;;7.48;100.00;97171.09;4941048;28;20105;-37
2023/12/29 07:34:34;;;;;;;3.05;1.88;;;8.10;99.90;;;7.49;100.00;97176.31;4943057;28;20044;-38
2023/12/29 07:37:00;;;;;;;2.95;1.95;;;8.00;99.90;;;7.48;100.00;97176.34;4940508;28;20452;-37
2023/12/29 07:39:25;;;;;;;4.30;2.05;;;8.10;99.90;;;7.50;100.00;97178.03;4941421;28;20070;-36
2023/12/29 07:41:51;;;;;;;3.33;1.70;;;8.00;99.90;;;7.54;100.00;97176.19;4942958;28;20106;-37
2023/12/29 07:44:17;;;;;;;2.72;1.95;;;8.10;99.90;;;7.55;100.00;97175.25;4940751;28;20476;-37
2023/12/29 07:46:44;;;;;;;2.30;1.63;;;8.10;99.90;;;7.55;100.00;97170.88;4943232;28;20042;-36
2023/12/29 07:49:10;;;;;;;2.53;1.70;;;8.10;99.90;;;7.57;100.00;97170.81;4944495;28;20023;-37
2023/12/29 07:51:44;;;;;;;6.03;1.88;;;8.20;99.90;;;7.69;100.00;97182.75;4935247;28;20057;-37
2023/12/29 07:54:10;;;;;;;2.08;1.67;;;8.20;99.90;;;7.79;100.00;97178.97;4944684;28;20035;-37
2023/12/29 07:56:37;;;;;;;2.60;1.77;;;8.30;99.90;;;7.80;100.00;97176.25;4942656;28;20023;-37
2023/12/29 07:59:03;;;;;;;1.85;1.40;;;8.40;99.90;;;7.89;100.00;97179.53;4943710;28;20031;-37
2023/12/29 08:01:29;;;;;;;2.40;1.55;;;8.40;99.90;;;7.98;100.00;97189.75;4943625;28;20039;-37
2023/12/29 08:03:55;;;;;;;3.33;1.90;;;8.50;99.90;;;8.04;100.00;97194.84;4941522;28;20494;-37
2023/12/29 08:06:21;;;;;;;4.32;1.77;;;8.60;99.90;;;8.11;100.00;97196.38;4946926;28;20447;-37
2023/12/29 08:08:46;;;;;;;2.65;1.50;;;8.60;99.90;;;8.16;100.00;97188.34;4940843;28;20065;-38
2023/12/29 08:11:16;;;;;;;3.22;1.58;;;8.70;99.90;;;8.18;100.00;97199.66;4942491;28;20039;-37
2023/12/29 08:13:44;;;;;;;3.75;2.00;;;8.80;99.90;;;8.23;100.00;97192.50;4934429;28;20776;-37
2023/12/29 08:16:11;;;;;;;2.97;1.80;;;8.80;99.90;;;8.29;100.00;97194.97;4944920;28;20024;-38
2023/12/29 08:18:36;;;;;;;4.93;1.77;;;8.80;99.90;;;8.31;100.00;97200.13;4939839;28;20405;-38
2023/12/29 08:21:02;;;;;;;2.28;1.77;;;8.90;99.90;;;8.33;100.00;97186.06;4941071;28;20035;-38
2023/12/29 08:23:28;;;;;;;3.30;1.80;;;8.90;99.90;;;8.38;100.00;97199.03;4939409;28;20045;-38
2023/12/29 08:25:56;;;;;;;3.00;1.55;;;8.90;99.90;;;8.40;100.00;97207.75;4945159;28;20586;-37
2023/12/29 08:28:22;;;;;;;3.30;1.80;;;9.00;99.90;;;8.41;100.00;97218.19;4933473;28;20034;-37
2023/12/29 08:30:47;;;;;;;2.97;1.70;;;9.00;99.90;;;8.44;100.00;97224.31;4943291;28;20041;-36
2023/12/29 08:33:13;;;;;;;5.00;1.73;;;9.00;99.90;;;8.42;100.00;97198.09;4943008;28;20442;-35
2023/12/29 08:35:40;;;;;;;3.08;1.60;;;9.00;99.90;;;8.51;100.00;97204.84;4941103;28;20299;-35
2023/12/29 08:38:06;;;;;;;3.00;1.80;;;9.10;99.90;;;8.61;100.00;97214.13;4942388;28;23963;-36
2023/12/29 08:40:32;;;;;;;3.30;1.67;;;9.10;99.90;;;8.64;100.00;97223.69;4943356;28;20038;-36
2023/12/29 08:42:58;;;;;;;4.22;1.70;;;9.20;99.90;;;8.66;100.00;97219.25;4937173;28;20154;-36
2023/12/29 08:45:24;;;;;;;3.42;1.80;;;9.20;99.90;;;8.67;100.00;97208.69;4936829;28;20027;-36
2023/12/29 08:47:49;;;;;;;3.40;1.70;;;9.20;99.90;;;8.68;100.00;97217.41;4935729;28;20042;-36
2023/12/29 08:50:15;;;;;;;4.20;1.65;;;9.20;99.90;;;8.68;100.00;97212.16;4943323;28;20043;-36
2023/12/29 08:52:41;;;;;;;3.55;1.90;;;9.20;99.90;;;8.63;100.00;97203.56;4941045;28;20067;-36
2023/12/29 08:55:08;;;;;;;3.60;1.70;;;9.20;99.90;;;8.71;100.00;97217.31;4949364;28;20239;-36
2023/12/29 08:57:34;;;;;;;3.67;1.60;;;9.20;99.90;;;8.70;100.00;97219.06;4944039;28;20026;-38
2023/12/29 08:59:59;;;;;;;2.92;1.90;;;9.20;99.90;;;8.68;100.00;97212.16;4942620;28;20479;-38
2023/12/29 09:02:25;;;;;;;3.88;1.85;;;9.20;99.90;;;8.67;100.00;97219.19;4944793;28;20256;-36
2023/12/29 09:04:51;;;;;;;3.20;1.90;;;9.20;99.90;;;8.65;100.00;97207.00;4946782;28;20042;-36
2023/12/29 09:07:17;;;;;;;3.28;1.77;;;9.20;99.90;;;8.63;100.00;97211.44;4950577;28;20463;-37
2023/12/29 09:09:42;;;;;;;3.25;1.90;;;9.20;99.90;;;8.67;100.00;97211.31;4944406;28;20046;-37
2023/12/29 09:12:08;;;;;;;2.30;1.40;;;9.20;99.90;;;8.72;100.00;97209.41;4943198;28;20066;-37
2023/12/29 09:14:34;;;;;;;2.85;1.77;;;9.30;99.90;;;8.79;100.00;97208.28;4940466;28;20063;-36
2023/12/29 09:17:00;;;;;;;1.55;1.42;;;9.30;99.90;;;8.85;100.00;97214.25;4944463;28;20046;-37
2023/12/29 09:19:26;;;;;;;2.20;1.70;;;9.40;99.90;;;8.91;100.00;97217.53;4944172;28;20035;-36
2023/12/29 09:21:52;;;;;;;2.25;1.80;;;9.50;99.90;;;8.95;100.00;97216.53;4943160;28;20121;-36
2023/12/29 09:24:18;;;;;;;2.25;1.50;;;9.50;99.90;;;9.01;100.00;97211.94;4944674;28;20035;-36
2023/12/29 09:26:44;;;;;;;1.85;1.52;;;9.60;99.90;;;9.08;100.00;97210.81;4945278;28;20031;-37
2023/12/29 09:29:09;;;;;;;2.67;1.40;;;9.60;99.90;;;9.16;100.00;97214.91;4940050;28;20042;-37
2023/12/29 09:31:36;;;;;;;3.78;1.42;;;9.70;99.90;;;9.24;100.00;97219.94;4942269;28;20038;-37
2023/12/29 09:34:02;;;;;;;2.88;1.45;;;9.80;99.90;;;9.32;100.00;97220.53;4939404;28;20408;-36
2023/12/29 09:36:27;;;;;;;4.63;1.70;;;9.90;99.90;;;9.45;100.00;97230.63;4941885;28;20610;-37
2023/12/29 09:38:53;;;;;;;1.58;1.17;;;9.90;99.90;;;9.40;100.00;97241.31;4937339;28;20757;-37
2023/12/29 09:41:23;;;;;;;4.57;1.60;;;9.90;99.90;;;9.31;100.00;97239.00;4947420;28;20126;-36
2023/12/29 09:43:50;;;;;;;3.92;1.50;;;9.90;99.90;;;9.22;100.00;97228.78;4932562;28;20065;-36
2023/12/29 09:46:20;;;;;;;2.45;1.40;;;9.80;99.90;;;9.16;100.00;97230.72;4942986;28;20043;-36
2023/12/29 09:48:47;;;;;;;1.60;0.95;;;9.80;99.90;;;9.25;100.00;97237.44;4938957;28;20178;-36
2023/12/29 09:51:14;;;;;;;1.95;1.30;;;9.80;99.90;;;9.24;100.00;97233.09;4958040;28;20035;-36
2023/12/29 09:53:41;;;;;;;2.47;1.20;;;9.80;99.90;;;9.18;100.00;97230.66;4931993;28;20036;-36
2023/12/29 09:56:09;;;;;;;1.73;1.20;;;9.80;99.90;;;9.30;100.00;97239.91;4941488;28;20062;-36
2023/12/29 09:58:37;;;;;;;2.90;1.27;;;9.80;99.90;;;9.28;100.00;97247.00;4945423;28;20031;-36
2023/12/29 10:01:07;;;;;;;2.60;1.17;;;9.80;99.90;;;9.31;100.00;97241.63;4943086;28;20421;-36
2023/12/29 10:03:33;;;;;;;2.42;1.30;;;9.90;99.90;;;9.34;100.00;97221.31;4936168;28;20057;-36
2023/12/29 10:06:03;;;;;;;3.35;1.30;;;10.00;99.90;;;9.50;100.00;97245.34;4942609;28;20035;-36
2023/12/29 10:08:33;;;;;;;2.63;1.30;;;10.00;99.90;;;9.50;100.00;97245.34;4956311;28;20046;-36
2023/12/29 10:11:01;;;;;;;2.00;1.20;;;10.00;99.90;;;9.46;100.00;97238.47;4935146;28;20497;-36
2023/12/29 10:13:31;;;;;;;3.47;1.40;;;10.00;99.90;;;9.42;100.00;97234.25;4938678;28;20122;-36
2023/12/29 10:16:09;;;;;;;2.55;1.30;;;9.90;99.90;;;9.45;100.00;97230.63;4940262;28;20045;-36
2023/12/29 10:18:46;;;;;;;1.88;1.10;;;10.00;99.90;;;9.50;100.00;97224.28;4933393;28;20435;-36
2023/12/29 10:21:29;;;;;;;2.38;1.27;;;10.00;99.90;;;9.55;100.00;97234.66;4953519;28;20031;-36
2023/12/29 10:24:04;;;;;;;;;;;10.00;99.90;;;9.60;100.00;97231.84;4939400;28;20035;-37